Time;durP1;ratioP1;P1;durP2;ratioP2;P2;SDS_P1;SDS_P2;PMS_P1;PMS_P2;Temp;Humidity;BMP_temperature;BMP_pressure;BME280_temperature;BME280_humidity;BME280_pressure;Samples;Min_cycle;Max_cycle;Signal;HPM_P1;HPM_P2
2023/01/16 00:00:56;;;;;;;;;;;;;;;;;;5075795;28;19916;-76
2023/01/16 00:03:22;;;;;;;;;;;;;;;;;;5075328;28;19933;-74
2023/01/16 00:05:48;;;;;;;;;;;;;;;;;;5075380;28;19908;-74
2023/01/16 00:08:14;;;;;;;;;;;;;;;;;;5075283;28;19909;-73
2023/01/16 00:10:40;;;;;;;;;;;;;;;;;;5073975;28;19998;-76
2023/01/16 00:13:06;;;;;;;;;;;;;;;;;;5075491;28;19951;-76
2023/01/16 00:15:32;;;;;;;;;;;;;;;;;;5075116;28;20258;-76
2023/01/16 00:17:58;;;;;;;;;;;;;;;;;;5075267;28;20369;-73
2023/01/16 00:20:24;;;;;;;;;;;;;;;;;;5075054;28;19966;-74
2023/01/16 00:22:49;;;;;;;;;;;;;;;;;;5074933;28;19912;-74
2023/01/16 00:25:15;;;;;;;;;;;;;;;;;;5075053;28;19908;-74
2023/01/16 00:27:41;;;;;;;;;;;;;;;;;;5074871;28;20292;-73
2023/01/16 00:30:07;;;;;;;;;;;;;;;;;;5074871;28;19999;-74
2023/01/16 00:32:33;;;;;;;;;;;;;;;;;;5074747;28;20454;-75
2023/01/16 00:34:59;;;;;;;;;;;;;;;;;;5073219;28;19913;-75
2023/01/16 00:37:25;;;;;;;;;;;;;;;;;;5074808;28;20051;-74
2023/01/16 00:39:54;;;;;;;;;;;;;;;;;;5074615;28;19915;-75
2023/01/16 00:42:20;;;;;;;;;;;;;;;;;;5074515;28;19913;-76
2023/01/16 00:44:46;;;;;;;;;;;;;;;;;;5074749;28;19916;-74
2023/01/16 00:47:12;;;;;;;;;;;;;;;;;;5074898;28;19915;-75
2023/01/16 00:49:38;;;;;;;;;;;;;;;;;;5074468;28;19955;-74
2023/01/16 00:52:04;;;;;;;;;;;;;;;;;;5074506;28;19913;-76
2023/01/16 00:54:30;;;;;;;;;;;;;;;;;;5073008;28;19909;-74
2023/01/16 00:56:55;;;;;;;;;;;;;;;;;;5074518;28;19973;-76
2023/01/16 00:59:21;;;;;;;;;;;;;;;;;;5074547;28;20365;-75
2023/01/16 01:01:47;;;;;;;;;;;;;;;;;;5074153;28;19912;-75
2023/01/16 01:04:13;;;;;;;;;;;;;;;;;;5074244;28;19950;-72
2023/01/16 01:06:39;;;;;;;;;;;;;;;;;;5074155;28;20066;-76
2023/01/16 01:09:05;;;;;;;;;;;;;;;;;;5073940;28;19916;-75
2023/01/16 01:11:31;;;;;;;;;;;;;;;;;;5074103;28;19909;-75
2023/01/16 01:13:57;;;;;;;;;;;;;;;;;;5074289;28;19916;-76
2023/01/16 01:16:23;;;;;;;;;;;;;;;;;;5074153;28;19919;-74
2023/01/16 01:18:49;;;;;;;;;;;;;;;;;;5073987;28;19909;-75
2023/01/16 01:21:15;;;;;;;;;;;;;;;;;;5074029;28;19916;-74
2023/01/16 01:23:41;;;;;;;;;;;;;;;;;;5072730;28;19915;-73
2023/01/16 01:26:07;;;;;;;;;;;;;;;;;;5073919;28;19908;-74
2023/01/16 01:28:33;;;;;;;;;;;;;;;;;;5073837;28;20443;-72
2023/01/16 01:30:59;;;;;;;;;;;;;;;;;;5074199;28;19948;-76
2023/01/16 01:33:25;;;;;;;;;;;;;;;;;;5073943;28;20280;-74
2023/01/16 01:35:51;;;;;;;;;;;;;;;;;;5073749;28;20385;-73
2023/01/16 01:38:17;;;;;;;;;;;;;;;;;;5073705;28;19958;-76
2023/01/16 01:40:42;;;;;;;;;;;;;;;;;;5072470;28;19912;-74
2023/01/16 01:43:08;;;;;;;;;;;;;;;;;;5073623;28;19920;-74
2023/01/16 01:45:34;;;;;;;;;;;;;;;;;;5073902;28;19916;-76
2023/01/16 01:48:00;;;;;;;;;;;;;;;;;;5073755;28;19922;-75
2023/01/16 01:50:26;;;;;;;;;;;;;;;;;;5073593;28;19959;-74
2023/01/16 01:52:52;;;;;;;;;;;;;;;;;;5073449;28;19916;-74
2023/01/16 01:55:18;;;;;;;;;;;;;;;;;;5073949;28;19958;-73
2023/01/16 01:57:44;;;;;;;;;;;;;;;;;;5073878;28;19908;-73
2023/01/16 02:00:10;;;;;;;;;;;;;;;;;;5073726;28;19958;-75
2023/01/16 02:02:36;;;;;;;;;;;;;;;;;;5073437;28;19939;-75
2023/01/16 02:05:02;;;;;;;;;;;;;;;;;;5073485;28;19915;-74
2023/01/16 02:07:28;;;;;;;;;;;;;;;;;;5073801;28;19931;-75
2023/01/16 02:09:54;;;;;;;;;;;;;;;;;;5073432;28;19966;-76
2023/01/16 02:12:20;;;;;;;;;;;;;;;;;;5073401;28;20379;-73
2023/01/16 02:14:45;;;;;;;;;;;;;;;;;;5073831;28;20381;-75
2023/01/16 02:19:56;;;;;;;;;;;;;;;;;;5073088;28;20050;-73
2023/01/16 02:22:22;;;;;;;;;;;;;;;;;;5076858;28;20011;-75
2023/01/16 02:24:48;;;;;;;;;;;;;;;;;;5077236;28;19909;-74
2023/01/16 02:27:13;;;;;;;;;;;;;;;;;;5077166;28;19919;-74
2023/01/16 02:29:39;;;;;;;;;;;;;;;;;;5077147;28;19908;-75
2023/01/16 02:32:05;;;;;;;;;;;;;;;;;;5077232;28;19915;-74
2023/01/16 02:34:31;;;;;;;;;;;;;;;;;;5077109;28;19999;-73
2023/01/16 02:36:57;;;;;;;;;;;;;;;;;;5076607;28;19928;-74
2023/01/16 02:39:23;;;;;;;;;;;;;;;;;;5077259;28;20006;-72
2023/01/16 02:41:49;;;;;;;;;;;;;;;;;;5076882;28;19947;-77
2023/01/16 02:44:15;;;;;;;;;;;;;;;;;;5076905;28;19916;-74
2023/01/16 02:46:41;;;;;;;;;;;;;;;;;;5077024;28;19909;-73
2023/01/16 02:49:07;;;;;;;;;;;;;;;;;;5077105;28;19909;-75
2023/01/16 02:51:33;;;;;;;;;;;;;;;;;;5077006;28;19920;-74
2023/01/16 02:53:59;;;;;;;;;;;;;;;;;;5076653;28;19916;-73
2023/01/16 02:56:25;;;;;;;;;;;;;;;;;;5075350;28;20364;-73
2023/01/16 02:58:51;;;;;;;;;;;;;;;;;;5076628;28;20388;-75
2023/01/16 03:01:16;;;;;;;;;;;;;;;;;;5076686;28;20005;-75
2023/01/16 03:03:42;;;;;;;;;;;;;;;;;;5076550;28;20284;-74
2023/01/16 03:06:08;;;;;;;;;;;;;;;;;;5076581;28;20388;-73
2023/01/16 03:08:34;;;;;;;;;;;;;;;;;;5076488;28;19908;-73
2023/01/16 03:11:01;;;;;;;;;;;;;;;;;;5076458;28;19916;-74
2023/01/16 03:13:27;;;;;;;;;;;;;;;;;;5076462;28;20004;-74
2023/01/16 03:15:53;;;;;;;;;;;;;;;;;;5076324;28;19944;-74
2023/01/16 03:18:19;;;;;;;;;;;;;;;;;;5076290;28;20292;-74
2023/01/16 03:20:45;;;;;;;;;;;;;;;;;;5076232;28;20366;-76
2023/01/16 03:23:11;;;;;;;;;;;;;;;;;;5076265;28;20327;-77
2023/01/16 03:25:37;;;;;;;;;;;;;;;;;;5076164;28;20433;-74
2023/01/16 03:28:04;;;;;;;;;;;;;;;;;;5076090;28;19916;-73
2023/01/16 03:30:30;;;;;;;;;;;;;;;;;;5076049;28;19916;-75
2023/01/16 03:32:56;;;;;;;;;;;;;;;;;;5075208;28;19908;-75
2023/01/16 03:35:22;;;;;;;;;;;;;;;;;;5075913;28;20003;-73
2023/01/16 03:37:48;;;;;;;;;;;;;;;;;;5076006;28;19962;-75
2023/01/16 03:40:15;;;;;;;;;;;;;;;;;;5075874;28;20315;-76
2023/01/16 03:42:41;;;;;;;;;;;;;;;;;;5075892;28;19913;-75
2023/01/16 03:45:07;;;;;;;;;;;;;;;;;;5075810;28;19958;-74
2023/01/16 03:47:33;;;;;;;;;;;;;;;;;;5075891;28;19962;-76
2023/01/16 03:49:59;;;;;;;;;;;;;;;;;;5075746;28;19908;-76
2023/01/16 03:52:25;;;;;;;;;;;;;;;;;;5076200;28;20307;-74
2023/01/16 03:54:51;;;;;;;;;;;;;;;;;;5075670;28;19954;-77
2023/01/16 03:57:17;;;;;;;;;;;;;;;;;;5075541;28;19912;-74
2023/01/16 03:59:43;;;;;;;;;;;;;;;;;;5075651;28;19961;-76
2023/01/16 04:02:08;;;;;;;;;;;;;;;;;;5075379;28;20015;-72
2023/01/16 04:04:34;;;;;;;;;;;;;;;;;;5075492;28;19915;-75
2023/01/16 04:07:00;;;;;;;;;;;;;;;;;;5075478;28;19913;-74
2023/01/16 04:09:26;;;;;;;;;;;;;;;;;;5075398;28;19978;-76
2023/01/16 04:11:52;;;;;;;;;;;;;;;;;;5075529;28;19967;-74
2023/01/16 04:14:18;;;;;;;;;;;;;;;;;;5075772;28;20327;-78
2023/01/16 04:16:45;;;;;;;;;;;;;;;;;;5075658;28;19909;-73
2023/01/16 04:19:10;;;;;;;;;;;;;;;;;;5075861;28;19909;-75
2023/01/16 04:21:37;;;;;;;;;;;;;;;;;;5075479;28;19912;-74
2023/01/16 04:24:03;;;;;;;;;;;;;;;;;;5075741;28;19909;-74
2023/01/16 04:26:29;;;;;;;;;;;;;;;;;;5075529;28;19909;-74
2023/01/16 04:28:55;;;;;;;;;;;;;;;;;;5076006;28;19909;-76
2023/01/16 04:31:21;;;;;;;;;;;;;;;;;;5075814;28;20365;-74
2023/01/16 04:33:47;;;;;;;;;;;;;;;;;;5075867;28;19915;-74
2023/01/16 04:36:13;;;;;;;;;;;;;;;;;;5075333;28;19927;-74
2023/01/16 04:38:39;;;;;;;;;;;;;;;;;;5075529;28;19948;-76
2023/01/16 04:41:05;;;;;;;;;;;;;;;;;;5075438;28;19909;-74
2023/01/16 04:43:31;;;;;;;;;;;;;;;;;;5074975;28;19945;-75
2023/01/16 04:45:57;;;;;;;;;;;;;;;;;;5074898;28;19909;-75
2023/01/16 04:48:22;;;;;;;;;;;;;;;;;;5075184;28;19963;-75
2023/01/16 04:50:49;;;;;;;;;;;;;;;;;;5075342;28;19908;-74
2023/01/16 04:53:15;;;;;;;;;;;;;;;;;;5075076;28;19909;-74
2023/01/16 04:55:41;;;;;;;;;;;;;;;;;;5075093;28;19947;-75
2023/01/16 04:58:06;;;;;;;;;;;;;;;;;;5074985;28;19909;-75
2023/01/16 05:00:32;;;;;;;;;;;;;;;;;;5074992;28;19935;-76
2023/01/16 05:02:58;;;;;;;;;;;;;;;;;;5074871;28;20281;-76
2023/01/16 05:05:24;;;;;;;;;;;;;;;;;;5074835;28;19959;-75
2023/01/16 05:08:15;;;;;;;;;;;;;;;;;;5075017;28;19908;-73
2023/01/16 05:10:36;;;;;;;;;;;;;;;;;;5074472;28;20357;-73
2023/01/16 05:13:02;;;;;;;;;;;;;;;;;;5075070;28;19991;-75
2023/01/16 05:15:28;;;;;;;;;;;;;;;;;;5074929;28;19908;-74
2023/01/16 05:17:54;;;;;;;;;;;;;;;;;;5075186;28;19920;-76
2023/01/16 05:20:20;;;;;;;;;;;;;;;;;;5074728;28;19908;-73
2023/01/16 05:22:46;;;;;;;;;;;;;;;;;;5074762;28;19920;-75
2023/01/16 05:25:12;;;;;;;;;;;;;;;;;;5074654;28;19916;-74
2023/01/16 05:27:38;;;;;;;;;;;;;;;;;;5074406;28;19909;-73
2023/01/16 05:30:03;;;;;;;;;;;;;;;;;;5074767;28;19912;-75
2023/01/16 05:32:29;;;;;;;;;;;;;;;;;;5074592;28;19938;-74
2023/01/16 05:34:55;;;;;;;;;;;;;;;;;;5074177;28;20061;-75
2023/01/16 05:37:21;;;;;;;;;;;;;;;;;;5074508;28;19912;-76
2023/01/16 05:39:47;;;;;;;;;;;;;;;;;;5074366;28;20364;-74
2023/01/16 05:42:24;;;;;;;;;;;;;;;;;;5074340;28;19919;-73
2023/01/16 05:44:50;;;;;;;;;;;;;;;;;;5072847;28;19972;-76
2023/01/16 05:47:16;;;;;;;;;;;;;;;;;;5074061;28;19909;-73
2023/01/16 05:49:42;;;;;;;;;;;;;;;;;;5074171;28;19908;-74
2023/01/16 05:52:08;;;;;;;;;;;;;;;;;;5073948;28;19909;-76
2023/01/16 05:54:33;;;;;;;;;;;;;;;;;;5073743;28;19919;-74
2023/01/16 05:56:59;;;;;;;;;;;;;;;;;;5073361;28;20006;-74
2023/01/16 05:59:25;;;;;;;;;;;;;;;;;;5073827;28;20363;-74
2023/01/16 06:01:51;;;;;;;;;;;;;;;;;;5074139;28;19913;-78
2023/01/16 06:04:19;;;;;;;;;;;;;;;;;;5073885;28;19908;-75
2023/01/16 06:06:44;;;;;;;;;;;;;;;;;;5073790;28;19938;-76
2023/01/16 06:09:10;;;;;;;;;;;;;;;;;;5073565;28;19912;-77
2023/01/16 06:11:36;;;;;;;;;;;;;;;;;;5073569;28;19974;-76
2023/01/16 06:14:04;;;;;;;;;;;;;;;;;;5073785;28;20329;-73
2023/01/16 06:16:30;;;;;;;;;;;;;;;;;;5073608;28;20254;-76
2023/01/16 06:18:56;;;;;;;;;;;;;;;;;;5073461;28;19923;-76
2023/01/16 06:21:22;;;;;;;;;;;;;;;;;;5073336;28;19908;-75
2023/01/16 06:23:48;;;;;;;;;;;;;;;;;;5073670;28;19954;-75
2023/01/16 06:26:14;;;;;;;;;;;;;;;;;;5073624;28;19920;-76
2023/01/16 06:28:40;;;;;;;;;;;;;;;;;;5073418;28;19949;-74
2023/01/16 06:31:05;;;;;;;;;;;;;;;;;;5073255;28;19908;-75
2023/01/16 06:33:31;;;;;;;;;;;;;;;;;;5073675;28;20447;-77
2023/01/16 06:35:57;;;;;;;;;;;;;;;;;;5073119;28;19920;-74
2023/01/16 06:38:23;;;;;;;;;;;;;;;;;;5073286;28;20003;-77
2023/01/16 06:40:49;;;;;;;;;;;;;;;;;;5073196;28;19948;-76
2023/01/16 06:43:16;;;;;;;;;;;;;;;;;;5073178;28;19912;-74
2023/01/16 06:45:42;;;;;;;;;;;;;;;;;;5073561;28;19908;-76
2023/01/16 06:48:08;;;;;;;;;;;;;;;;;;5073222;28;20295;-76
2023/01/16 06:50:34;;;;;;;;;;;;;;;;;;5073118;28;19919;-76
2023/01/16 06:53:00;;;;;;;;;;;;;;;;;;5073550;28;19909;-75
2023/01/16 06:55:26;;;;;;;;;;;;;;;;;;5071847;28;19909;-74
2023/01/16 06:57:52;;;;;;;;;;;;;;;;;;5073000;28;19908;-74
2023/01/16 07:00:18;;;;;;;;;;;;;;;;;;5073047;28;19947;-77
2023/01/16 07:02:43;;;;;;;;;;;;;;;;;;5071673;28;20438;-77
2023/01/16 07:05:09;;;;;;;;;;;;;;;;;;5073451;28;19909;-75
2023/01/16 07:07:35;;;;;;;;;;;;;;;;;;5073826;28;19909;-75
2023/01/16 07:10:01;;;;;;;;;;;;;;;;;;5076593;28;19958;-74
2023/01/16 07:12:27;;;;;;;;;;;;;;;;;;5076709;28;19908;-75
2023/01/16 07:23:07;;;;;;;;;;;;;;;;;;5076104;28;19958;-75
2023/01/16 07:25:33;;;;;;;;;;;;;;;;;;5076403;28;19912;-75
2023/01/16 07:27:59;;;;;;;;;;;;;;;;;;5076167;28;20330;-76
2023/01/16 07:30:25;;;;;;;;;;;;;;;;;;5076367;28;20007;-75
2023/01/16 07:32:51;;;;;;;;;;;;;;;;;;5076213;28;20285;-76
2023/01/16 07:35:17;;;;;;;;;;;;;;;;;;5076144;28;20395;-75
2023/01/16 07:37:42;;;;;;;;;;;;;;;;;;5076269;28;19995;-77
2023/01/16 07:40:08;;;;;;;;;;;;;;;;;;5076081;28;19909;-75
2023/01/16 07:42:34;;;;;;;;;;;;;;;;;;5075967;28;20006;-77
2023/01/16 07:45:00;;;;;;;;;;;;;;;;;;5076153;28;20284;-75
2023/01/16 07:47:26;;;;;;;;;;;;;;;;;;5076037;28;19915;-75
2023/01/16 07:49:52;;;;;;;;;;;;;;;;;;5076388;28;19908;-76
2023/01/16 07:52:18;;;;;;;;;;;;;;;;;;5075848;28;19947;-78
2023/01/16 07:54:44;;;;;;;;;;;;;;;;;;5075929;28;19912;-76
2023/01/16 07:57:10;;;;;;;;;;;;;;;;;;5076022;28;19962;-76
2023/01/16 07:59:36;;;;;;;;;;;;;;;;;;5075641;28;19962;-76
2023/01/16 08:02:02;;;;;;;;;;;;;;;;;;5075893;28;19971;-77
2023/01/16 08:04:28;;;;;;;;;;;;;;;;;;5075800;28;19915;-77
2023/01/16 08:06:54;;;;;;;;;;;;;;;;;;5075427;28;19920;-76
2023/01/16 08:09:20;;;;;;;;;;;;;;;;;;5075437;28;20360;-77
2023/01/16 08:11:48;;;;;;;;;;;;;;;;;;5075430;28;19908;-77
2023/01/16 08:14:15;;;;;;;;;;;;;;;;;;5075286;28;19998;-76
2023/01/16 08:16:41;;;;;;;;;;;;;;;;;;5075473;28;19915;-75
2023/01/16 08:19:06;;;;;;;;;;;;;;;;;;5075189;28;20003;-75
2023/01/16 08:21:32;;;;;;;;;;;;;;;;;;5075135;28;19955;-75
2023/01/16 08:23:58;;;;;;;;;;;;;;;;;;5075157;28;19959;-75
2023/01/16 08:26:24;;;;;;;;;;;;;;;;;;5075571;28;19966;-79
2023/01/16 08:28:51;;;;;;;;;;;;;;;;;;5075024;28;19999;-75
2023/01/16 08:31:18;;;;;;;;;;;;;;;;;;5074965;28;19908;-75
2023/01/16 08:33:45;;;;;;;;;;;;;;;;;;5073741;28;19962;-76
2023/01/16 08:36:11;;;;;;;;;;;;;;;;;;5074962;28;20355;-75
2023/01/16 08:38:37;;;;;;;;;;;;;;;;;;5074849;28;19954;-77
2023/01/16 08:41:03;;;;;;;;;;;;;;;;;;5075102;28;20360;-74
2023/01/16 08:51:43;;;;;;;;;;;;;;;;;;5074418;28;19915;-78
2023/01/16 08:54:09;;;;;;;;;;;;;;;;;;5074430;28;19999;-78
2023/01/16 08:56:36;;;;;;;;;;;;;;;;;;5074491;28;19950;-76
2023/01/16 08:59:02;;;;;;;;;;;;;;;;;;5074556;28;19909;-76
2023/01/16 09:01:28;;;;;;;;;;;;;;;;;;5074362;28;19944;-77
2023/01/16 09:03:54;;;;;;;;;;;;;;;;;;5074585;28;19912;-78
2023/01/16 09:06:20;;;;;;;;;;;;;;;;;;5074342;28;19908;-73
2023/01/16 09:08:46;;;;;;;;;;;;;;;;;;5074479;28;20372;-76
2023/01/16 09:14:00;;;;;;;;;;;;;;;;;;5073865;28;19961;-78
2023/01/16 09:16:26;;;;;;;;;;;;;;;;;;5073131;28;19966;-76
2023/01/16 09:18:51;;;;;;;;;;;;;;;;;;5074250;28;19909;-75
2023/01/16 09:21:23;;;;;;;;;;;;;;;;;;5074153;28;19979;-77
2023/01/16 09:23:49;;;;;;;;;;;;;;;;;;5074015;28;20046;-76
2023/01/16 09:26:15;;;;;;;;;;;;;;;;;;5074143;28;19940;-76
2023/01/16 09:28:41;;;;;;;;;;;;;;;;;;5074077;28;19909;-77
2023/01/16 09:31:07;;;;;;;;;;;;;;;;;;5073552;28;19908;-76
2023/01/16 09:33:33;;;;;;;;;;;;;;;;;;5073866;28;19918;-75
2023/01/16 09:35:59;;;;;;;;;;;;;;;;;;5073667;28;19920;-78
2023/01/16 09:38:25;;;;;;;;;;;;;;;;;;5074086;28;19915;-77
2023/01/16 09:40:51;;;;;;;;;;;;;;;;;;5073826;28;19909;-74
2023/01/16 09:43:35;;;;;;;;;;;;;;;;;;5073769;28;19977;-77
2023/01/16 09:46:01;;;;;;;;;;;;;;;;;;5074153;28;19909;-77
2023/01/16 09:48:27;;;;;;;;;;;;;;;;;;5073694;28;20387;-77
2023/01/16 09:50:53;;;;;;;;;;;;;;;;;;5073845;28;19909;-77
2023/01/16 09:58:48;;;;;;;;;;;;;;;;;;5073365;28;19954;-78
2023/01/16 10:01:14;;;;;;;;;;;;;;;;;;5073571;28;19913;-79
2023/01/16 10:03:43;;;;;;;;;;;;;;;;;;5073421;28;19912;-77
2023/01/16 10:06:09;;;;;;;;;;;;;;;;;;5073519;28;19965;-74
2023/01/16 10:08:35;;;;;;;;;;;;;;;;;;5072209;28;20276;-77
2023/01/16 10:11:01;;;;;;;;;;;;;;;;;;5073605;28;19908;-76
2023/01/16 10:13:27;;;;;;;;;;;;;;;;;;5073447;28;19955;-76
2023/01/16 10:15:53;;;;;;;;;;;;;;;;;;5073412;28;19954;-77
2023/01/16 10:18:19;;;;;;;;;;;;;;;;;;5073522;28;19909;-78
2023/01/16 10:20:46;;;;;;;;;;;;;;;;;;5073334;28;19908;-78
2023/01/16 10:23:12;;;;;;;;;;;;;;;;;;5073255;28;20383;-78
2023/01/16 10:25:38;;;;;;;;;;;;;;;;;;5073669;28;19909;-77
2023/01/16 10:28:04;;;;;;;;;;;;;;;;;;5073541;28;19912;-76
2023/01/16 10:30:30;;;;;;;;;;;;;;;;;;5073259;28;19951;-77
2023/01/16 10:32:56;;;;;;;;;;;;;;;;;;5073684;28;19945;-77
2023/01/16 10:35:22;;;;;;;;;;;;;;;;;;5073051;28;20292;-76
2023/01/16 10:37:48;;;;;;;;;;;;;;;;;;5071864;28;20379;-77
2023/01/16 10:40:14;;;;;;;;;;;;;;;;;;5073375;28;19913;-77
2023/01/16 10:51:10;;;;;;;;;;;;;;;;;;5074713;28;19962;-78
2023/01/16 10:53:36;;;;;;;;;;;;;;;;;;5075965;28;19909;-77
2023/01/16 10:56:02;;;;;;;;;;;;;;;;;;5076773;28;20418;-77
2023/01/16 10:58:28;;;;;;;;;;;;;;;;;;5076838;28;19912;-76
2023/01/16 11:00:54;;;;;;;;;;;;;;;;;;5076653;28;20295;-77
2023/01/16 11:03:20;;;;;;;;;;;;;;;;;;5076539;28;19912;-78
2023/01/16 11:05:46;;;;;;;;;;;;;;;;;;5076763;28;19908;-76
2023/01/16 11:08:12;;;;;;;;;;;;;;;;;;5076635;28;19915;-75
2023/01/16 11:10:38;;;;;;;;;;;;;;;;;;5076451;28;19909;-76
2023/01/16 11:18:33;;;;;;;;;;;;;;;;;;5076051;28;20403;-77
2023/01/16 11:21:00;;;;;;;;;;;;;;;;;;5076237;28;19909;-78
2023/01/16 11:23:26;;;;;;;;;;;;;;;;;;5076118;28;19912;-78
2023/01/16 11:25:52;;;;;;;;;;;;;;;;;;5076404;28;19908;-78
2023/01/16 11:28:18;;;;;;;;;;;;;;;;;;5076202;28;19909;-76
2023/01/16 11:30:44;;;;;;;;;;;;;;;;;;5076100;28;20380;-76
2023/01/16 11:33:10;;;;;;;;;;;;;;;;;;5076078;28;20261;-77
2023/01/16 11:35:36;;;;;;;;;;;;;;;;;;5075963;28;19920;-78
2023/01/16 11:38:04;;;;;;;;;;;;;;;;;;5075965;28;19909;-78
2023/01/16 11:40:30;;;;;;;;;;;;;;;;;;5076162;28;19908;-77
2023/01/16 11:48:26;;;;;;;;;;;;;;;;;;5075632;28;20339;-78
2023/01/16 11:50:52;;;;;;;;;;;;;;;;;;5075909;28;19908;-77
2023/01/16 11:53:18;;;;;;;;;;;;;;;;;;5075067;28;19958;-78
2023/01/16 11:55:44;;;;;;;;;;;;;;;;;;5075737;28;19916;-78
2023/01/16 11:58:10;;;;;;;;;;;;;;;;;;5075958;28;19940;-77
2023/01/16 12:00:36;;;;;;;;;;;;;;;;;;5075558;28;19908;-76
2023/01/16 12:03:02;;;;;;;;;;;;;;;;;;5075488;28;19946;-76
2023/01/16 12:08:20;;;;;;;;;;;;;;;;;;5075126;28;19915;-77
2023/01/16 12:10:46;;;;;;;;;;;;;;;;;;5075450;28;20424;-76
2023/01/16 12:15:56;;;;;;;;;;;;;;;;;;5074977;28;19963;-77
2023/01/16 12:18:22;;;;;;;;;;;;;;;;;;5075459;28;19913;-78
2023/01/16 12:20:48;;;;;;;;;;;;;;;;;;5075573;28;19916;-79
2023/01/16 12:23:14;;;;;;;;;;;;;;;;;;5075266;28;19916;-78
2023/01/16 12:25:40;;;;;;;;;;;;;;;;;;5075753;28;20365;-78
2023/01/16 12:28:06;;;;;;;;;;;;;;;;;;5075211;28;20000;-78
2023/01/16 12:30:32;;;;;;;;;;;;;;;;;;5075211;28;19952;-77
2023/01/16 12:33:09;;;;;;;;;;;;;;;;;;5075069;28;19954;-78
2023/01/16 12:35:34;;;;;;;;;;;;;;;;;;5073281;28;19963;-77
2023/01/16 12:38:00;;;;;;;;;;;;;;;;;;5075080;28;19908;-77
2023/01/16 12:40:26;;;;;;;;;;;;;;;;;;5075363;28;19915;-78
2023/01/16 12:45:37;;;;;;;;;;;;;;;;;;5074562;28;19916;-77
2023/01/16 12:48:02;;;;;;;;;;;;;;;;;;5074664;28;19908;-78
2023/01/16 12:50:29;;;;;;;;;;;;;;;;;;5074651;28;19991;-79
2023/01/16 12:52:55;;;;;;;;;;;;;;;;;;5074609;28;19916;-77
2023/01/16 12:55:21;;;;;;;;;;;;;;;;;;5074740;28;19909;-78
2023/01/16 12:57:47;;;;;;;;;;;;;;;;;;5074769;28;19916;-79
2023/01/16 13:00:13;;;;;;;;;;;;;;;;;;5074882;28;19909;-77
2023/01/16 13:02:39;;;;;;;;;;;;;;;;;;5074474;28;20351;-78
2023/01/16 13:05:05;;;;;;;;;;;;;;;;;;5072358;28;20380;-78
2023/01/16 13:07:31;;;;;;;;;;;;;;;;;;5074309;28;19962;-78
2023/01/16 13:13:20;;;;;;;;;;;;;;;;;;5074447;28;19913;-78
2023/01/16 13:15:27;;;;;;;;;;;;;;;;;;5073996;28;19915;-77
2023/01/16 13:17:53;;;;;;;;;;;;;;;;;;5074244;28;19995;-78
2023/01/16 13:20:19;;;;;;;;;;;;;;;;;;5074365;28;19909;-78
2023/01/16 13:22:45;;;;;;;;;;;;;;;;;;5074242;28;20355;-78
2023/01/16 13:25:11;;;;;;;;;;;;;;;;;;5074167;28;19909;-77
2023/01/16 13:27:37;;;;;;;;;;;;;;;;;;5074098;28;19915;-77
2023/01/16 13:30:03;;;;;;;;;;;;;;;;;;5073962;28;19909;-78
2023/01/16 13:32:29;;;;;;;;;;;;;;;;;;5074016;28;19909;-78
2023/01/16 13:34:55;;;;;;;;;;;;;;;;;;5073989;28;19961;-78
2023/01/16 13:37:21;;;;;;;;;;;;;;;;;;5074000;28;19940;-77
2023/01/16 13:39:47;;;;;;;;;;;;;;;;;;5072533;28;19908;-77
2023/01/16 13:42:13;;;;;;;;;;;;;;;;;;5074027;28;20297;-77
2023/01/16 13:47:23;;;;;;;;;;;;;;;;;;5073452;28;19916;-78
2023/01/16 13:49:49;;;;;;;;;;;;;;;;;;5073694;28;20327;-76
2023/01/16 13:52:15;;;;;;;;;;;;;;;;;;5073798;28;19930;-78
2023/01/16 13:54:41;;;;;;;;;;;;;;;;;;5073643;28;20336;-78
2023/01/16 13:57:07;;;;;;;;;;;;;;;;;;5073608;28;20361;-77
2023/01/16 13:59:33;;;;;;;;;;;;;;;;;;5072282;28;19912;-78
2023/01/16 14:01:59;;;;;;;;;;;;;;;;;;5073506;28;19916;-76
2023/01/16 14:04:25;;;;;;;;;;;;;;;;;;5073658;28;19913;-76
2023/01/16 14:09:03;;;;;;;;;;;;;;;;;;5073525;28;19999;-75
2023/01/16 14:09:37;;;;;;;;;;;;;;;;;;5073063;28;19908;-77
2023/01/16 14:12:03;;;;;;;;;;;;;;;;;;5073681;28;19932;-77
2023/01/16 14:17:13;;;;;;;;;;;;;;;;;;5074903;28;19915;-76
2023/01/16 14:19:39;;;;;;;;;;;;;;;;;;5076224;28;19909;-77
2023/01/16 14:24:31;;;;;;;;;;;;;;;;;;5077396;28;20269;-77
2023/01/16 14:26:57;;;;;;;;;;;;;;;;;;5077591;28;19915;-78
2023/01/16 14:29:23;;;;;;;;;;;;;;;;;;5077236;28;19908;-77
2023/01/16 14:31:49;;;;;;;;;;;;;;;;;;5077169;28;19915;-77
2023/01/16 14:34:15;;;;;;;;;;;;;;;;;;5077196;28;19909;-77
2023/01/16 14:36:41;;;;;;;;;;;;;;;;;;5076914;28;20388;-78
2023/01/16 14:39:07;;;;;;;;;;;;;;;;;;5077213;28;19915;-77
2023/01/16 14:55:16;;;;;;;;;;;;;;;;;;5076567;28;19916;-77
2023/01/16 14:57:42;;;;;;;;;;;;;;;;;;5076829;28;19908;-77
2023/01/16 15:00:13;;;;;;;;;;;;;;;;;;5076735;28;19916;-77
2023/01/16 15:02:38;;;;;;;;;;;;;;;;;;5076953;28;19966;-77
2023/01/16 15:05:06;;;;;;;;;;;;;;;;;;5076844;28;20004;-77
2023/01/16 15:07:32;;;;;;;;;;;;;;;;;;5076500;28;20351;-77
2023/01/16 15:09:58;;;;;;;;;;;;;;;;;;5076490;28;19934;-77
2023/01/16 15:12:24;;;;;;;;;;;;;;;;;;5075190;28;20042;-77
2023/01/16 15:14:50;;;;;;;;;;;;;;;;;;5076447;28;19943;-76
2023/01/16 15:22:45;;;;;;;;;;;;;;;;;;5076131;28;19924;-77
2023/01/16 15:25:11;;;;;;;;;;;;;;;;;;5076225;28;19908;-77
2023/01/16 15:27:37;;;;;;;;;;;;;;;;;;5076480;28;19909;-77
2023/01/16 15:30:03;;;;;;;;;;;;;;;;;;5075301;28;19908;-77
2023/01/16 15:32:28;;;;;;;;;;;;;;;;;;5076090;28;19908;-76
2023/01/16 15:34:54;;;;;;;;;;;;;;;;;;5076068;28;19919;-77
2023/01/16 15:37:20;;;;;;;;;;;;;;;;;;5075983;28;20007;-77
2023/01/16 15:39:48;;;;;;;;;;;;;;;;;;5076076;28;19909;-76
2023/01/16 15:47:44;;;;;;;;;;;;;;;;;;5075623;28;19914;-77
2023/01/16 15:50:10;;;;;;;;;;;;;;;;;;5075792;28;20339;-77
2023/01/16 15:52:39;;;;;;;;;;;;;;;;;;5075731;28;20396;-77
2023/01/16 15:55:05;;;;;;;;;;;;;;;;;;5075794;28;20431;-77
2023/01/16 15:57:31;;;;;;;;;;;;;;;;;;5076081;28;19940;-77
2023/01/16 15:59:57;;;;;;;;;;;;;;;;;;5075586;28;19909;-77
2023/01/16 16:02:23;;;;;;;;;;;;;;;;;;5075585;28;19920;-77
2023/01/16 16:04:50;;;;;;;;;;;;;;;;;;5074156;28;19912;-77
2023/01/16 16:07:15;;;;;;;;;;;;;;;;;;5075455;28;19908;-77
2023/01/16 16:09:41;;;;;;;;;;;;;;;;;;5075408;28;19916;-76
2023/01/16 16:12:07;;;;;;;;;;;;;;;;;;5075501;28;19909;-77
2023/01/16 16:20:02;;;;;;;;;;;;;;;;;;5075097;28;19916;-76
2023/01/16 16:25:13;;;;;;;;;;;;;;;;;;5074835;28;19961;-77
2023/01/16 16:27:39;;;;;;;;;;;;;;;;;;5075185;28;19912;-76
2023/01/16 16:30:05;;;;;;;;;;;;;;;;;;5075435;28;20392;-76
2023/01/16 16:32:31;;;;;;;;;;;;;;;;;;5074904;28;19909;-76
2023/01/16 16:34:57;;;;;;;;;;;;;;;;;;5074608;28;19912;-75
2023/01/16 16:37:22;;;;;;;;;;;;;;;;;;5073272;28;19916;-76
2023/01/16 16:39:48;;;;;;;;;;;;;;;;;;5074614;28;19915;-77
2023/01/16 16:42:27;;;;;;;;;;;;;;;;;;5074911;28;19923;-77
2023/01/16 16:44:55;;;;;;;;;;;;;;;;;;5073836;28;21350;-76
2023/01/16 16:47:21;;;;;;;;;;;;;;;;;;5074619;28;19914;-76
2023/01/16 16:49:46;;;;;;;;;;;;;;;;;;5075019;28;19947;-76
2023/01/16 16:52:12;;;;;;;;;;;;;;;;;;5074511;28;19909;-76
2023/01/16 16:54:40;;;;;;;;;;;;;;;;;;5074483;28;19915;-77
2023/01/16 16:57:06;;;;;;;;;;;;;;;;;;5074420;28;19913;-77
2023/01/16 16:59:37;;;;;;;;;;;;;;;;;;5074552;28;20016;-76
2023/01/16 17:02:04;;;;;;;;;;;;;;;;;;5074629;28;20438;-76
2023/01/16 17:04:30;;;;;;;;;;;;;;;;;;5074315;28;19947;-76
2023/01/16 17:06:56;;;;;;;;;;;;;;;;;;5074349;28;19920;-76
2023/01/16 17:09:22;;;;;;;;;;;;;;;;;;5074163;28;19947;-76
2023/01/16 17:11:48;;;;;;;;;;;;;;;;;;5074385;28;19908;-76
2023/01/16 17:14:14;;;;;;;;;;;;;;;;;;5074422;28;20403;-76
2023/01/16 17:16:41;;;;;;;;;;;;;;;;;;5074015;28;19961;-76
2023/01/16 17:19:07;;;;;;;;;;;;;;;;;;5074031;28;19999;-76
2023/01/16 17:21:33;;;;;;;;;;;;;;;;;;5074061;28;20360;-77
2023/01/16 17:23:59;;;;;;;;;;;;;;;;;;5073893;28;20376;-77
2023/01/16 17:26:25;;;;;;;;;;;;;;;;;;5074202;28;19966;-76
2023/01/16 17:28:53;;;;;;;;;;;;;;;;;;5073892;28;19955;-75
2023/01/16 17:31:19;;;;;;;;;;;;;;;;;;5074005;28;19909;-76
2023/01/16 17:33:45;;;;;;;;;;;;;;;;;;5074096;28;20391;-76
2023/01/16 17:36:10;;;;;;;;;;;;;;;;;;5073596;28;20019;-77
2023/01/16 17:38:36;;;;;;;;;;;;;;;;;;5073855;28;19908;-77
2023/01/16 17:41:03;;;;;;;;;;;;;;;;;;5072516;28;19918;-77
2023/01/16 17:46:13;;;;;;;;;;;;;;;;;;5073432;28;20423;-77
2023/01/16 17:48:39;;;;;;;;;;;;;;;;;;5073696;28;19908;-77
2023/01/16 17:51:05;;;;;;;;;;;;;;;;;;5073201;28;19916;-77
2023/01/16 17:53:31;;;;;;;;;;;;;;;;;;5073488;28;19953;-76
2023/01/16 17:55:57;;;;;;;;;;;;;;;;;;5073736;28;19958;-77
2023/01/16 17:58:24;;;;;;;;;;;;;;;;;;5073640;28;19908;-77
2023/01/16 18:00:50;;;;;;;;;;;;;;;;;;5073653;28;19908;-76
2023/01/16 18:03:17;;;;;;;;;;;;;;;;;;5073528;28;20034;-76
2023/01/16 18:05:43;;;;;;;;;;;;;;;;;;5073762;28;19915;-76
2023/01/16 18:08:09;;;;;;;;;;;;;;;;;;5073522;28;20003;-77
2023/01/16 18:10:35;;;;;;;;;;;;;;;;;;5073527;28;19917;-77
2023/01/16 18:18:38;;;;;;;;;;;;;;;;;;5072462;28;19962;-76
2023/01/16 18:23:48;;;;;;;;;;;;;;;;;;5073060;28;19919;-76
2023/01/16 18:26:14;;;;;;;;;;;;;;;;;;5073450;28;19912;-76
2023/01/16 18:28:40;;;;;;;;;;;;;;;;;;5072026;28;19955;-77